AirNav   Pilot Hours Calculator
 
 922 users online  

KXNI Andrew Othole Memorial Airport
Zuni, New Mexico, USA

GOING TO ZUNI?


FAA INFORMATION EFFECTIVE 28 MARCH 2019

Location

FAA Identifier: XNI
Lat/Long: 35-03-38.4300N / 108-56-15.3600W
35-03.640500N / 108-56.256000W
35.0606750 / -108.9376000
(estimated)
Elevation: 6370.1 ft. / 1941.6 m (surveyed)
Variation: 09E (2015)
From city: 4 miles W of ZUNI, NM
Time zone: UTC -6 (UTC -7 during Standard Time)
Zip code: 87315

Airport Operations

Airport use: Open to the public
Activation date: 10/2017
Control tower: no
ARTCC: ALBUQUERQUE CENTER
FSS: ALBUQUERQUE FLIGHT SERVICE STATION
NOTAMs facility: ABQ (NOTAM-D service not available)
Attendance: 
Wind indicator: lighted
Segmented circle: no
Lights: ACTIVATE MIRL RWY 06/24 - CTAF.
Beacon: white-green (lighted land airport)
Operates sunset to sunrise.

Airport Communications

CTAF: 122.9

Nearby radio navigation aids

VOR radial/distance  VOR name  Freq  Var
ZUNr048/12.1ZUNI VORTAC113.4014E
GUPr173/25.1GALLUP VORTAC115.1014E
SJNr003/39.5ST JOHNS VORTAC112.3012E

Airport Services

Runway Information

Runway 6/24

Dimensions: 6000 x 75 ft. / 1829 x 23 m
Surface: asphalt
Runway edge lights: medium intensity
RUNWAY 6  RUNWAY 24
Latitude: 35-03.465395N35-03.815618N
Longitude: 108-56.818195W108-55.693695W
Elevation: 6295.0 ft.6370.1 ft.
Traffic pattern: leftleft
Markings: none, in good conditionnone, in good condition
Touchdown point: yes, no lightsyes, no lights

Airport Ownership and Management from official FAA records

Ownership: Publicly-owned
Owner: PUEBLO OF ZUNI
1203-B STATE HWY 53
ZUNI, NM 87327
Phone 505-782-7000
Manager: ROYCE GCHACHU
PO BOX 339
ZUNI, NM 87327
Phone 505-782-7282

Instrument Procedures

There are no published instrument procedures at KXNI.

Some nearby airports with instrument procedures:

KGUP - Gallup Municipal Airport (28 nm N)
KRQE - Window Rock Airport (36 nm N)
KSJN - St Johns Industrial Air Park (39 nm SW)
KGNT - Grants-Milan Municipal Airport (51 nm E)
KJTC - Springerville Municipal Airport (59 nm S)
 
Loc | Ops | Rwys | IFR | FBO | Links
Com | Nav | Svcs | Stats | Notes
Aerial photo
WARNING: Photo may not be current or correct
Aerial photo of KXNI (Andrew Othole Memorial Airport)
Photo by Perry Null
Taken in September 2018
looking west.

Do you have a better or more recent aerial photo of Andrew Othole Memorial Airport that you would like to share? If so, please send us your photo.

 
Airport distance calculator
Flying to Andrew Othole Memorial Airport? Find the distance to fly.

From to KXNI

Sunrise and sunset
Times for 21-Apr-2019
 Local
(UTC-6)
 Zulu
(UTC)
Morning civil twilight06:1112:11
Sunrise06:3712:37
Sunset19:5201:52
Evening civil twilight20:1802:18

Current date and time
Zulu (UTC)  21-Apr-2019 16:15:44
Local (UTC-6)  21-Apr-2019 10:15:44
 
METAR
KGUP 
28nm N 
211553Z AUTO 24018G25KT 10SM CLR 15/M02 A3004 RMK AO2 PK WND 22028/1522 SLP065 T01501022
KRQE 
36nm N 
211553Z AUTO 22014G24KT 10SM CLR 14/M02 A3003 RMK AO2 SLP088 T01441017
KSJN 
39nm SW 
211554Z AUTO 25013G21KT 10SM CLR 18/M02 A3001 RMK AO2 SLP090 T01781017
TAF
KGUP 
28nm N 
211139Z 2112/2212 21011KT P6SM SCT120 FM211500 23015G25KT P6SM BKN250 TEMPO 2120/2124 24021G31KT FM220200 23011KT P6SM SCT250 FM220900 VRB06KT P6SM SKC
NOTAMs
Click for the latest NOTAMs
NOTAMs are issued by the DoD/FAA and will open in a separate window not controlled by AirNav.

 

 
 

Would you like to see your business listed on this page?

 If your business provides an interesting product or service to pilots, flight crews, aircraft, or users of the Andrew Othole Memorial Airport, you should consider listing it here.  To start the listing process, click on the button below
 
Add a business
 

Other Pages about Andrew Othole Memorial Airport

Update a link
 
Copyright © AirNav, LLC. All rights reserved. Privacy Policy  Contact